Atlanta, Georgia
Traffic Map
Current Weather Conditions
Atlanta, Georgia
Broken Clouds
Broken Clouds
81°
Feels Like: 84°
Wind Chill: 81° Ceiling: 25000
Heat Index: 84° Visibility: 10mi
Dew Point: 70° Wind: 3mph
Humidity: 69% Direction: 60° (ENE)
Pressure: 30.02in Gusts: 0mph
Raw Report DataKATL 022152Z 06003KT 10SM FEW100 SCT200 BKN250 27/21 A3002 RMK AO2 RAE08 SLP155 P0000 T02720211
Traffic Incident Summary
Active as of:
Severity:
Category:
InformationThere was an issue retrieving the traffic information for this location. Please try a different location or try again shortly.
Advertisements
Track Severe Weather on mobile